Decoded Metar for ZBAA (BEIJING in CHINA) (IATA:PEK) | Meteo·Mobile Aviation Weather
aviador You're here:

ZBAA Decoded Metar

BEIJING in CHINA
Report Time2018-10-23 09:30:00
UTC Time2018-10-23 09:41:07
Flight Rules vfr VFR
Wind180° at 4 kt
W.Decomp.*RWY 18: 4.0 kt HW 0.4 kt RCW
RWY 19: 4.0 kt HW 0.3 kt LCW
W.Rank180° ranks 14
Current wind is below 180° avg. (6.9)
Visibility9999 m
Phenomena:N/A
Clouds:N/A
Expected CloudBase > 7,600 ft AGL from Temp-Dew spread
CeilingNone
Temp15°C (ISA 0)
Dew Point-4°C (27% RH)
AAT11.1°C
QNH1016 hPa
Density Alt85 ft
Elevation98 ft
Report Wrong Elevation
Raw Report
METAR ZBAA 230930Z 18002MPS CAVOK 15/M04 Q1016 NOSIG=

Extra information for ZBAA:More info

Metar Taf Metar & Taf Last 4 Metars F.Rules Stats Wind Profile Meteogram Temp Stats Airport Information Weather charts Add Link Nearby VenuesMetar ALERT Operation Metar Decoded Social comments